createdAt,value
2023-04-02T00:02:30.305Z,100221.22
2023-04-02T00:12:33.270Z,100228.25
2023-04-02T00:22:44.425Z,100232.84
2023-04-02T00:32:48.110Z,100231.59
2023-04-02T00:42:54.533Z,100236.69
2023-04-02T00:53:00.191Z,100243.50
2023-04-02T01:03:29.230Z,100249.56
2023-04-02T01:13:38.067Z,100254.63
2023-04-02T01:23:53.552Z,100261.44
2023-04-02T01:33:57.892Z,100268.91
2023-04-02T01:44:06.372Z,100273.97
2023-04-02T01:54:12.846Z,100279.63
2023-04-02T02:04:17.358Z,100287.16
2023-04-02T02:14:24.960Z,100291.09
2023-04-02T02:24:32.142Z,100298.28
2023-04-02T02:34:41.900Z,100304.84
2023-04-02T02:44:48.269Z,100311.63
2023-04-02T02:54:55.475Z,100317.50
2023-04-02T03:04:58.933Z,100324.31
2023-04-02T03:15:13.931Z,100330.50
2023-04-02T03:25:25.686Z,100338.78
2023-04-02T03:35:37.389Z,100341.34
2023-04-02T03:45:44.586Z,100348.75
2023-04-02T03:55:49.685Z,100356.06
2023-04-02T04:06:00.198Z,100360.81
2023-04-02T04:16:10.007Z,100367.34
2023-04-02T04:26:26.076Z,100368.38
2023-04-02T04:36:40.293Z,100372.31
2023-04-02T04:46:50.924Z,100372.72
2023-04-02T04:57:05.970Z,100374.72
2023-04-02T05:07:15.117Z,100381.31
2023-04-02T05:17:24.116Z,100384.84
2023-04-02T05:27:46.478Z,100390.28
2023-04-02T05:37:54.105Z,100394.03
2023-04-02T05:48:02.109Z,100401.56
2023-04-02T05:58:34.625Z,100409.72
2023-04-02T06:08:42.316Z,100416.16
2023-04-02T06:18:46.835Z,100424.56
2023-04-02T06:28:54.074Z,100433.47
2023-04-02T06:39:05.496Z,100440.78
2023-04-02T06:49:19.767Z,100447.03
2023-04-02T06:59:24.596Z,100455.38
2023-04-02T07:09:27.571Z,100463.63
2023-04-02T07:19:31.960Z,100470.19
2023-04-02T07:29:34.887Z,100471.81
2023-04-02T07:39:40.697Z,100479.44
2023-04-02T07:49:43.682Z,100487.03
2023-04-02T07:59:48.234Z,100493.94
2023-04-02T08:09:51.036Z,100501.50
2023-04-02T08:19:56.390Z,100506.63
2023-04-02T08:29:59.548Z,100513.03
2023-04-02T08:40:04.761Z,100518.47
2023-04-02T08:50:16.148Z,100520.31
2023-04-02T09:00:28.561Z,100517.81
2023-04-02T09:10:39.223Z,100524.44
2023-04-02T09:20:44.131Z,100530.50
2023-04-02T09:31:00.048Z,100536.59
2023-04-02T09:41:06.181Z,100539.97
2023-04-02T09:51:17.728Z,100545.75
2023-04-02T10:01:31.614Z,100548.63
2023-04-02T10:11:45.772Z,100547.78
2023-04-02T10:21:53.023Z,100552.06
2023-04-02T10:32:03.665Z,100554.44
2023-04-02T10:42:17.473Z,100560.84
2023-04-02T10:52:24.593Z,100553.13
2023-04-02T11:02:39.777Z,100560.63
2023-04-02T11:12:51.266Z,100563.59
2023-04-02T11:23:11.143Z,100564.34
2023-04-02T11:33:46.146Z,100570.44
2023-04-02T11:44:03.977Z,100572.94
2023-04-02T11:54:24.917Z,100574.22
2023-04-02T12:05:05.950Z,100577.03
2023-04-02T12:15:35.026Z,100581.66
2023-04-02T12:25:41.144Z,100585.78
2023-04-02T12:35:46.857Z,100585.56
2023-04-02T12:45:53.999Z,100590.34
2023-04-02T12:55:57.459Z,100587.38
2023-04-02T13:06:02.236Z,100585.88
2023-04-02T13:16:25.342Z,100584.97
2023-04-02T13:26:31.285Z,100591.03
2023-04-02T13:36:34.298Z,100595.13
2023-04-02T13:46:39.276Z,100593.56
2023-04-02T13:56:42.259Z,100589.44
2023-04-02T14:07:13.164Z,100594.63
2023-04-02T14:17:25.434Z,100600.78
2023-04-02T14:27:48.641Z,100604.53
2023-04-02T14:38:03.148Z,100607.59
2023-04-02T14:48:18.026Z,100609.38
2023-04-02T14:58:25.709Z,100609.28
2023-04-02T15:08:38.580Z,100610.97
2023-04-02T15:18:42.777Z,100605.97
2023-04-02T15:28:54.173Z,100610.16
2023-04-02T15:39:03.338Z,100610.47
2023-04-02T15:49:22.268Z,100612.19
2023-04-02T15:59:51.525Z,100606.16
2023-04-02T16:10:05.109Z,100609.34
2023-04-02T16:20:19.138Z,100607.25
2023-04-02T16:30:48.962Z,100609.25
2023-04-02T16:41:08.506Z,100614.59
2023-04-02T16:51:21.805Z,100612.88
2023-04-02T17:01:32.392Z,100616.56
2023-04-02T17:11:45.759Z,100614.97
2023-04-02T17:21:55.461Z,100617.53
2023-04-02T17:32:02.947Z,100619.09
2023-04-02T17:42:15.875Z,100619.16
2023-04-02T17:52:27.583Z,100605.47
2023-04-02T18:03:00.151Z,100609.22
2023-04-02T18:13:07.376Z,100612.84
2023-04-02T18:23:27.271Z,100617.00
2023-04-02T18:34:07.020Z,100614.03
2023-04-02T18:44:35.126Z,100612.88
2023-04-02T18:54:46.031Z,100611.16
2023-04-02T19:04:57.176Z,100607.13
2023-04-02T19:15:03.096Z,100611.66
2023-04-02T19:25:23.271Z,100610.28
2023-04-02T19:35:37.774Z,100605.59
2023-04-02T19:45:43.866Z,100606.22
2023-04-02T19:55:48.380Z,100606.16
2023-04-02T20:05:51.970Z,100605.47
2023-04-02T20:15:59.109Z,100606.00
2023-04-02T20:26:03.088Z,100608.56
2023-04-02T20:36:09.921Z,100612.22
2023-04-02T20:46:13.617Z,100609.47
2023-04-02T20:56:21.331Z,100603.50
2023-04-02T21:06:26.754Z,100606.81
2023-04-02T21:16:32.398Z,100602.59
2023-04-02T21:26:37.489Z,100606.22
2023-04-02T21:36:43.500Z,100603.88
2023-04-02T21:46:46.728Z,100606.63
2023-04-02T21:56:51.699Z,100610.34
2023-04-02T22:06:55.034Z,100612.53
2023-04-02T22:17:00.552Z,100614.59
2023-04-02T22:27:04.685Z,100612.22
2023-04-02T22:37:09.114Z,100615.06
2023-04-02T22:47:12.501Z,100611.63
2023-04-02T22:57:17.045Z,100614.38
2023-04-02T23:07:20.045Z,100615.38
2023-04-02T23:17:24.759Z,100616.69
2023-04-02T23:27:27.798Z,100616.03
2023-04-02T23:37:32.186Z,100609.41
2023-04-02T23:47:35.459Z,100607.19
2023-04-02T23:57:40.645Z,100609.19
